Terminal Aerodrome Forecast
Issued by NWS

Home | Current Version | Previous Version | Text Only | Print | Product List | Glossary On
Versions: 1 2 3 4 5 6 7 8 9 10 11 12 13 14
515
FTUS45 KABQ 092321
TAFSAF
TAF
KSAF 092321Z 1000/1024 26011KT P6SM BKN200
     FM100100 33006KT P6SM FEW150 BKN200
     FM101000 35011KT P6SM FEW150 BKN200
     FM102000 25008KT P6SM SCT200=

USA.gov is the U.S. government's official web portal to all federal, state and local government web resources and services.